sensor_id;sensor_type;location;lat;lon;timestamp;P1;durP1;ratioP1;P2;durP2;ratioP2
63536;SDS011;49686;51.880;5.632;2023-06-04T00:02:28;3.35;;;1.40;;
63536;SDS011;49686;51.880;5.632;2023-06-04T00:04:54;4.60;;;1.23;;
63536;SDS011;49686;51.880;5.632;2023-06-04T00:07:22;2.00;;;1.50;;
63536;SDS011;49686;51.880;5.632;2023-06-04T00:09:48;4.88;;;1.50;;
63536;SDS011;49686;51.880;5.632;2023-06-04T00:12:15;2.50;;;1.30;;
63536;SDS011;49686;51.880;5.632;2023-06-04T00:14:42;1.73;;;1.60;;
63536;SDS011;49686;51.880;5.632;2023-06-04T00:17:09;1.85;;;1.27;;
63536;SDS011;49686;51.880;5.632;2023-06-04T00:19:39;2.15;;;1.40;;
63536;SDS011;49686;51.880;5.632;2023-06-04T00:22:06;3.30;;;1.30;;
63536;SDS011;49686;51.880;5.632;2023-06-04T00:24:33;1.77;;;1.20;;
63536;SDS011;49686;51.880;5.632;2023-06-04T00:27:01;1.67;;;1.40;;
63536;SDS011;49686;51.880;5.632;2023-06-04T00:29:27;2.00;;;1.40;;
63536;SDS011;49686;51.880;5.632;2023-06-04T00:31:54;2.47;;;2.03;;
63536;SDS011;49686;51.880;5.632;2023-06-04T00:34:21;3.33;;;1.45;;
63536;SDS011;49686;51.880;5.632;2023-06-04T00:36:49;2.00;;;1.40;;
63536;SDS011;49686;51.880;5.632;2023-06-04T00:39:16;4.07;;;1.50;;
63536;SDS011;49686;51.880;5.632;2023-06-04T00:41:43;2.35;;;1.67;;
63536;SDS011;49686;51.880;5.632;2023-06-04T00:44:10;3.65;;;1.65;;
63536;SDS011;49686;51.880;5.632;2023-06-04T00:46:37;2.58;;;1.33;;
63536;SDS011;49686;51.880;5.632;2023-06-04T00:49:04;4.22;;;1.50;;
63536;SDS011;49686;51.880;5.632;2023-06-04T00:51:31;3.55;;;1.40;;
63536;SDS011;49686;51.880;5.632;2023-06-04T00:54:00;2.97;;;1.58;;
63536;SDS011;49686;51.880;5.632;2023-06-04T00:56:29;4.20;;;1.60;;
63536;SDS011;49686;51.880;5.632;2023-06-04T00:58:56;2.45;;;1.85;;
63536;SDS011;49686;51.880;5.632;2023-06-04T01:01:28;3.58;;;1.50;;
63536;SDS011;49686;51.880;5.632;2023-06-04T01:04:03;2.05;;;1.92;;
63536;SDS011;49686;51.880;5.632;2023-06-04T01:06:36;3.67;;;1.67;;
63536;SDS011;49686;51.880;5.632;2023-06-04T01:09:07;1.25;;;1.15;;
63536;SDS011;49686;51.880;5.632;2023-06-04T01:11:36;2.08;;;1.42;;
63536;SDS011;49686;51.880;5.632;2023-06-04T01:14:04;2.65;;;1.65;;
63536;SDS011;49686;51.880;5.632;2023-06-04T01:16:34;2.40;;;1.65;;
63536;SDS011;49686;51.880;5.632;2023-06-04T01:19:05;2.13;;;1.33;;
63536;SDS011;49686;51.880;5.632;2023-06-04T01:21:45;2.53;;;1.40;;
63536;SDS011;49686;51.880;5.632;2023-06-04T01:24:14;2.40;;;2.20;;
63536;SDS011;49686;51.880;5.632;2023-06-04T01:26:43;3.55;;;1.55;;
63536;SDS011;49686;51.880;5.632;2023-06-04T01:29:10;2.58;;;1.50;;
63536;SDS011;49686;51.880;5.632;2023-06-04T01:31:36;3.70;;;1.58;;
63536;SDS011;49686;51.880;5.632;2023-06-04T01:34:03;5.25;;;1.50;;
63536;SDS011;49686;51.880;5.632;2023-06-04T01:36:34;3.00;;;2.10;;
63536;SDS011;49686;51.880;5.632;2023-06-04T01:39:00;4.10;;;1.67;;
63536;SDS011;49686;51.880;5.632;2023-06-04T01:41:29;3.30;;;1.65;;
63536;SDS011;49686;51.880;5.632;2023-06-04T01:43:55;4.03;;;2.40;;
63536;SDS011;49686;51.880;5.632;2023-06-04T01:46:22;2.03;;;1.73;;
63536;SDS011;49686;51.880;5.632;2023-06-04T01:48:49;4.80;;;1.40;;
63536;SDS011;49686;51.880;5.632;2023-06-04T01:51:16;4.15;;;1.60;;
63536;SDS011;49686;51.880;5.632;2023-06-04T01:53:43;3.40;;;1.40;;
63536;SDS011;49686;51.880;5.632;2023-06-04T01:56:10;3.72;;;1.70;;
63536;SDS011;49686;51.880;5.632;2023-06-04T01:58:38;1.55;;;1.45;;
63536;SDS011;49686;51.880;5.632;2023-06-04T02:01:04;2.20;;;2.00;;
63536;SDS011;49686;51.880;5.632;2023-06-04T02:03:32;4.60;;;1.70;;
63536;SDS011;49686;51.880;5.632;2023-06-04T02:05:59;3.53;;;2.25;;
63536;SDS011;49686;51.880;5.632;2023-06-04T02:08:26;3.47;;;1.63;;
63536;SDS011;49686;51.880;5.632;2023-06-04T02:10:52;4.25;;;1.55;;
63536;SDS011;49686;51.880;5.632;2023-06-04T02:13:20;5.60;;;1.75;;
63536;SDS011;49686;51.880;5.632;2023-06-04T02:15:49;4.28;;;1.80;;
63536;SDS011;49686;51.880;5.632;2023-06-04T02:18:17;2.55;;;1.60;;
63536;SDS011;49686;51.880;5.632;2023-06-04T02:20:45;3.50;;;1.50;;
63536;SDS011;49686;51.880;5.632;2023-06-04T02:23:13;2.15;;;1.30;;
63536;SDS011;49686;51.880;5.632;2023-06-04T02:28:08;2.63;;;1.60;;
63536;SDS011;49686;51.880;5.632;2023-06-04T02:30:35;2.92;;;1.50;;
63536;SDS011;49686;51.880;5.632;2023-06-04T02:33:03;2.55;;;1.90;;
63536;SDS011;49686;51.880;5.632;2023-06-04T02:35:30;2.78;;;1.70;;
63536;SDS011;49686;51.880;5.632;2023-06-04T02:37:58;2.80;;;1.75;;
63536;SDS011;49686;51.880;5.632;2023-06-04T02:40:25;2.58;;;1.48;;
63536;SDS011;49686;51.880;5.632;2023-06-04T02:42:52;3.38;;;1.90;;
63536;SDS011;49686;51.880;5.632;2023-06-04T02:45:19;2.95;;;2.42;;
63536;SDS011;49686;51.880;5.632;2023-06-04T02:47:46;2.55;;;1.70;;
63536;SDS011;49686;51.880;5.632;2023-06-04T02:50:15;4.82;;;2.00;;
63536;SDS011;49686;51.880;5.632;2023-06-04T02:52:42;4.53;;;2.33;;
63536;SDS011;49686;51.880;5.632;2023-06-04T02:55:10;2.80;;;1.95;;
63536;SDS011;49686;51.880;5.632;2023-06-04T02:57:37;4.15;;;1.90;;
63536;SDS011;49686;51.880;5.632;2023-06-04T03:00:06;4.40;;;2.10;;
63536;SDS011;49686;51.880;5.632;2023-06-04T03:02:34;8.13;;;1.90;;
63536;SDS011;49686;51.880;5.632;2023-06-04T03:05:01;5.20;;;1.58;;
63536;SDS011;49686;51.880;5.632;2023-06-04T03:07:32;3.80;;;1.70;;
63536;SDS011;49686;51.880;5.632;2023-06-04T03:09:59;3.87;;;1.80;;
63536;SDS011;49686;51.880;5.632;2023-06-04T03:12:25;2.63;;;1.90;;
63536;SDS011;49686;51.880;5.632;2023-06-04T03:14:52;2.97;;;1.83;;
63536;SDS011;49686;51.880;5.632;2023-06-04T03:17:19;4.78;;;1.90;;
63536;SDS011;49686;51.880;5.632;2023-06-04T03:19:46;3.13;;;1.80;;
63536;SDS011;49686;51.880;5.632;2023-06-04T03:22:13;6.78;;;2.33;;
63536;SDS011;49686;51.880;5.632;2023-06-04T03:24:42;3.85;;;1.90;;
63536;SDS011;49686;51.880;5.632;2023-06-04T03:27:09;5.57;;;2.70;;
63536;SDS011;49686;51.880;5.632;2023-06-04T03:29:36;3.47;;;1.80;;
63536;SDS011;49686;51.880;5.632;2023-06-04T03:32:05;3.88;;;2.10;;
63536;SDS011;49686;51.880;5.632;2023-06-04T03:34:33;5.28;;;2.00;;
63536;SDS011;49686;51.880;5.632;2023-06-04T03:37:01;4.23;;;1.83;;
63536;SDS011;49686;51.880;5.632;2023-06-04T03:39:28;2.58;;;1.85;;
63536;SDS011;49686;51.880;5.632;2023-06-04T03:41:56;4.50;;;1.80;;
63536;SDS011;49686;51.880;5.632;2023-06-04T03:44:23;14.27;;;2.83;;
63536;SDS011;49686;51.880;5.632;2023-06-04T03:46:50;18.27;;;2.25;;
63536;SDS011;49686;51.880;5.632;2023-06-04T03:49:17;3.42;;;1.90;;
63536;SDS011;49686;51.880;5.632;2023-06-04T03:51:44;3.90;;;1.70;;
63536;SDS011;49686;51.880;5.632;2023-06-04T03:54:11;5.13;;;2.20;;
63536;SDS011;49686;51.880;5.632;2023-06-04T03:56:37;3.70;;;2.38;;
63536;SDS011;49686;51.880;5.632;2023-06-04T03:59:06;5.90;;;1.98;;
63536;SDS011;49686;51.880;5.632;2023-06-04T04:01:32;3.13;;;1.97;;
63536;SDS011;49686;51.880;5.632;2023-06-04T04:03:59;2.40;;;1.85;;
63536;SDS011;49686;51.880;5.632;2023-06-04T04:06:26;3.05;;;1.98;;
63536;SDS011;49686;51.880;5.632;2023-06-04T04:08:53;3.03;;;2.25;;
63536;SDS011;49686;51.880;5.632;2023-06-04T04:11:20;4.03;;;2.25;;
63536;SDS011;49686;51.880;5.632;2023-06-04T04:13:47;2.47;;;1.90;;
63536;SDS011;49686;51.880;5.632;2023-06-04T04:16:16;4.68;;;2.10;;
63536;SDS011;49686;51.880;5.632;2023-06-04T04:18:42;6.07;;;2.17;;
63536;SDS011;49686;51.880;5.632;2023-06-04T04:21:10;4.13;;;1.95;;
63536;SDS011;49686;51.880;5.632;2023-06-04T04:23:37;6.75;;;2.00;;
63536;SDS011;49686;51.880;5.632;2023-06-04T04:28:33;8.93;;;2.53;;
63536;SDS011;49686;51.880;5.632;2023-06-04T04:31:00;3.50;;;1.90;;
63536;SDS011;49686;51.880;5.632;2023-06-04T04:33:28;3.97;;;2.00;;
63536;SDS011;49686;51.880;5.632;2023-06-04T04:35:55;4.53;;;2.20;;
63536;SDS011;49686;51.880;5.632;2023-06-04T04:38:22;3.97;;;1.80;;
63536;SDS011;49686;51.880;5.632;2023-06-04T04:40:49;3.08;;;1.73;;
63536;SDS011;49686;51.880;5.632;2023-06-04T04:43:16;2.60;;;2.40;;
63536;SDS011;49686;51.880;5.632;2023-06-04T04:45:43;2.22;;;1.55;;
63536;SDS011;49686;51.880;5.632;2023-06-04T04:48:10;2.97;;;1.80;;
63536;SDS011;49686;51.880;5.632;2023-06-04T04:50:38;4.10;;;1.77;;
63536;SDS011;49686;51.880;5.632;2023-06-04T04:53:05;3.67;;;2.28;;
63536;SDS011;49686;51.880;5.632;2023-06-04T04:55:32;4.10;;;1.98;;
63536;SDS011;49686;51.880;5.632;2023-06-04T04:57:58;3.90;;;2.15;;
63536;SDS011;49686;51.880;5.632;2023-06-04T05:00:25;3.75;;;1.70;;
63536;SDS011;49686;51.880;5.632;2023-06-04T05:02:52;4.07;;;1.88;;
63536;SDS011;49686;51.880;5.632;2023-06-04T05:05:19;4.05;;;2.10;;
63536;SDS011;49686;51.880;5.632;2023-06-04T05:07:47;2.50;;;1.52;;
63536;SDS011;49686;51.880;5.632;2023-06-04T05:10:14;3.30;;;1.70;;
63536;SDS011;49686;51.880;5.632;2023-06-04T05:12:50;2.92;;;2.17;;
63536;SDS011;49686;51.880;5.632;2023-06-04T05:15:17;3.10;;;1.70;;
63536;SDS011;49686;51.880;5.632;2023-06-04T05:17:44;3.65;;;1.90;;
63536;SDS011;49686;51.880;5.632;2023-06-04T05:20:11;4.95;;;1.80;;
63536;SDS011;49686;51.880;5.632;2023-06-04T05:22:38;4.25;;;1.90;;
63536;SDS011;49686;51.880;5.632;2023-06-04T05:25:07;5.47;;;1.85;;
63536;SDS011;49686;51.880;5.632;2023-06-04T05:27:34;5.35;;;1.90;;
63536;SDS011;49686;51.880;5.632;2023-06-04T05:30:01;4.20;;;1.90;;
63536;SDS011;49686;51.880;5.632;2023-06-04T05:32:28;2.78;;;1.70;;
63536;SDS011;49686;51.880;5.632;2023-06-04T05:34:56;4.80;;;1.60;;
63536;SDS011;49686;51.880;5.632;2023-06-04T05:37:23;5.68;;;1.52;;
63536;SDS011;49686;51.880;5.632;2023-06-04T05:39:50;2.97;;;1.80;;
63536;SDS011;49686;51.880;5.632;2023-06-04T05:42:18;2.72;;;1.77;;
63536;SDS011;49686;51.880;5.632;2023-06-04T05:44:45;2.50;;;1.65;;
63536;SDS011;49686;51.880;5.632;2023-06-04T05:47:12;3.28;;;1.50;;
63536;SDS011;49686;51.880;5.632;2023-06-04T05:49:39;5.90;;;1.73;;
63536;SDS011;49686;51.880;5.632;2023-06-04T05:52:06;4.35;;;1.80;;
63536;SDS011;49686;51.880;5.632;2023-06-04T05:54:32;3.05;;;1.60;;
63536;SDS011;49686;51.880;5.632;2023-06-04T05:56:59;6.78;;;2.15;;
63536;SDS011;49686;51.880;5.632;2023-06-04T05:59:29;3.05;;;1.80;;
63536;SDS011;49686;51.880;5.632;2023-06-04T06:01:56;3.17;;;1.77;;
63536;SDS011;49686;51.880;5.632;2023-06-04T06:04:23;4.95;;;1.70;;
63536;SDS011;49686;51.880;5.632;2023-06-04T06:06:50;3.97;;;1.75;;
63536;SDS011;49686;51.880;5.632;2023-06-04T06:09:17;4.05;;;1.88;;
63536;SDS011;49686;51.880;5.632;2023-06-04T06:11:43;3.60;;;1.88;;
63536;SDS011;49686;51.880;5.632;2023-06-04T06:14:17;3.33;;;1.60;;
63536;SDS011;49686;51.880;5.632;2023-06-04T06:16:45;2.63;;;1.58;;
63536;SDS011;49686;51.880;5.632;2023-06-04T06:19:11;3.60;;;1.60;;
63536;SDS011;49686;51.880;5.632;2023-06-04T06:21:38;3.67;;;1.98;;
63536;SDS011;49686;51.880;5.632;2023-06-04T06:24:05;4.90;;;1.70;;
63536;SDS011;49686;51.880;5.632;2023-06-04T06:26:32;3.25;;;2.03;;
63536;SDS011;49686;51.880;5.632;2023-06-04T06:28:59;2.45;;;1.63;;
63536;SDS011;49686;51.880;5.632;2023-06-04T06:31:26;4.03;;;1.73;;
63536;SDS011;49686;51.880;5.632;2023-06-04T06:33:55;2.80;;;1.37;;
63536;SDS011;49686;51.880;5.632;2023-06-04T06:36:22;5.15;;;1.73;;
63536;SDS011;49686;51.880;5.632;2023-06-04T06:38:49;5.25;;;2.50;;
63536;SDS011;49686;51.880;5.632;2023-06-04T06:41:15;3.63;;;1.90;;
63536;SDS011;49686;51.880;5.632;2023-06-04T06:43:43;3.35;;;1.70;;
63536;SDS011;49686;51.880;5.632;2023-06-04T06:46:09;3.65;;;1.60;;
63536;SDS011;49686;51.880;5.632;2023-06-04T06:48:36;5.60;;;1.90;;
63536;SDS011;49686;51.880;5.632;2023-06-04T06:51:07;2.30;;;1.60;;
63536;SDS011;49686;51.880;5.632;2023-06-04T06:53:34;2.85;;;1.60;;
63536;SDS011;49686;51.880;5.632;2023-06-04T06:56:01;5.53;;;1.73;;
63536;SDS011;49686;51.880;5.632;2023-06-04T06:58:27;3.88;;;2.00;;
63536;SDS011;49686;51.880;5.632;2023-06-04T07:00:57;3.00;;;1.85;;
63536;SDS011;49686;51.880;5.632;2023-06-04T07:03:24;3.78;;;1.70;;
63536;SDS011;49686;51.880;5.632;2023-06-04T07:05:51;3.83;;;1.60;;
63536;SDS011;49686;51.880;5.632;2023-06-04T07:08:19;4.95;;;1.60;;
63536;SDS011;49686;51.880;5.632;2023-06-04T07:10:46;4.93;;;1.60;;
63536;SDS011;49686;51.880;5.632;2023-06-04T07:13:13;3.85;;;1.67;;
63536;SDS011;49686;51.880;5.632;2023-06-04T07:15:40;2.92;;;1.63;;
63536;SDS011;49686;51.880;5.632;2023-06-04T07:18:07;3.28;;;1.60;;
63536;SDS011;49686;51.880;5.632;2023-06-04T07:20:33;4.82;;;1.85;;
63536;SDS011;49686;51.880;5.632;2023-06-04T07:23:00;3.85;;;1.73;;
63536;SDS011;49686;51.880;5.632;2023-06-04T07:25:29;2.50;;;1.50;;
63536;SDS011;49686;51.880;5.632;2023-06-04T07:27:55;3.15;;;2.05;;
63536;SDS011;49686;51.880;5.632;2023-06-04T07:30:22;4.80;;;3.15;;
63536;SDS011;49686;51.880;5.632;2023-06-04T07:32:49;5.15;;;1.95;;
63536;SDS011;49686;51.880;5.632;2023-06-04T07:35:16;3.88;;;1.50;;
63536;SDS011;49686;51.880;5.632;2023-06-04T07:37:43;3.58;;;1.95;;
63536;SDS011;49686;51.880;5.632;2023-06-04T07:40:10;2.47;;;1.48;;
63536;SDS011;49686;51.880;5.632;2023-06-04T07:42:39;2.30;;;1.75;;
63536;SDS011;49686;51.880;5.632;2023-06-04T07:47:36;4.22;;;1.55;;
63536;SDS011;49686;51.880;5.632;2023-06-04T07:50:03;3.65;;;1.40;;
63536;SDS011;49686;51.880;5.632;2023-06-04T07:52:31;2.15;;;1.30;;
63536;SDS011;49686;51.880;5.632;2023-06-04T07:55:00;2.97;;;1.50;;
63536;SDS011;49686;51.880;5.632;2023-06-04T07:57:27;4.15;;;1.38;;
63536;SDS011;49686;51.880;5.632;2023-06-04T07:59:55;2.63;;;1.77;;
63536;SDS011;49686;51.880;5.632;2023-06-04T08:02:22;3.33;;;1.42;;
63536;SDS011;49686;51.880;5.632;2023-06-04T08:04:49;6.38;;;1.65;;
63536;SDS011;49686;51.880;5.632;2023-06-04T08:07:16;5.93;;;1.52;;
63536;SDS011;49686;51.880;5.632;2023-06-04T08:09:43;2.15;;;1.67;;
63536;SDS011;49686;51.880;5.632;2023-06-04T08:12:09;3.22;;;1.23;;
63536;SDS011;49686;51.880;5.632;2023-06-04T08:14:36;4.03;;;1.45;;
63536;SDS011;49686;51.880;5.632;2023-06-04T08:17:05;2.88;;;1.10;;
63536;SDS011;49686;51.880;5.632;2023-06-04T08:19:37;3.33;;;1.40;;
63536;SDS011;49686;51.880;5.632;2023-06-04T08:22:04;2.42;;;1.30;;
63536;SDS011;49686;51.880;5.632;2023-06-04T08:24:30;4.03;;;1.40;;
63536;SDS011;49686;51.880;5.632;2023-06-04T08:26:57;3.13;;;1.23;;
63536;SDS011;49686;51.880;5.632;2023-06-04T08:29:24;2.30;;;1.40;;
63536;SDS011;49686;51.880;5.632;2023-06-04T08:31:51;3.78;;;1.42;;
63536;SDS011;49686;51.880;5.632;2023-06-04T08:34:21;4.28;;;1.50;;
63536;SDS011;49686;51.880;5.632;2023-06-04T08:36:48;1.98;;;1.38;;
63536;SDS011;49686;51.880;5.632;2023-06-04T08:39:15;1.83;;;1.17;;
63536;SDS011;49686;51.880;5.632;2023-06-04T08:41:42;2.83;;;1.30;;
63536;SDS011;49686;51.880;5.632;2023-06-04T08:44:10;3.05;;;1.00;;
63536;SDS011;49686;51.880;5.632;2023-06-04T08:46:41;2.88;;;1.33;;
63536;SDS011;49686;51.880;5.632;2023-06-04T08:49:11;4.53;;;1.10;;
63536;SDS011;49686;51.880;5.632;2023-06-04T08:51:40;1.98;;;1.17;;
63536;SDS011;49686;51.880;5.632;2023-06-04T08:54:08;1.58;;;1.23;;
63536;SDS011;49686;51.880;5.632;2023-06-04T08:56:35;2.10;;;0.95;;
63536;SDS011;49686;51.880;5.632;2023-06-04T08:59:04;1.80;;;1.35;;
63536;SDS011;49686;51.880;5.632;2023-06-04T09:01:32;2.67;;;1.20;;
63536;SDS011;49686;51.880;5.632;2023-06-04T09:03:59;2.33;;;1.20;;
63536;SDS011;49686;51.880;5.632;2023-06-04T09:06:30;2.03;;;1.35;;
63536;SDS011;49686;51.880;5.632;2023-06-04T09:09:00;2.40;;;1.20;;
63536;SDS011;49686;51.880;5.632;2023-06-04T09:11:33;2.25;;;1.10;;
63536;SDS011;49686;51.880;5.632;2023-06-04T09:14:07;4.65;;;1.10;;
63536;SDS011;49686;51.880;5.632;2023-06-04T09:16:42;3.45;;;1.05;;
63536;SDS011;49686;51.880;5.632;2023-06-04T09:19:09;1.42;;;1.00;;
63536;SDS011;49686;51.880;5.632;2023-06-04T09:21:45;2.97;;;1.00;;
63536;SDS011;49686;51.880;5.632;2023-06-04T09:24:16;1.63;;;0.95;;
63536;SDS011;49686;51.880;5.632;2023-06-04T09:26:43;1.85;;;1.10;;
63536;SDS011;49686;51.880;5.632;2023-06-04T09:29:10;2.95;;;1.38;;
63536;SDS011;49686;51.880;5.632;2023-06-04T09:31:38;3.00;;;1.55;;
63536;SDS011;49686;51.880;5.632;2023-06-04T09:34:06;2.75;;;0.98;;
63536;SDS011;49686;51.880;5.632;2023-06-04T09:36:33;1.67;;;1.30;;
63536;SDS011;49686;51.880;5.632;2023-06-04T09:39:00;2.67;;;1.08;;
63536;SDS011;49686;51.880;5.632;2023-06-04T09:41:28;4.65;;;1.30;;
63536;SDS011;49686;51.880;5.632;2023-06-04T09:43:59;2.25;;;1.10;;
63536;SDS011;49686;51.880;5.632;2023-06-04T09:46:26;1.70;;;1.10;;
63536;SDS011;49686;51.880;5.632;2023-06-04T09:48:59;2.63;;;1.15;;
63536;SDS011;49686;51.880;5.632;2023-06-04T09:51:27;1.20;;;1.10;;
63536;SDS011;49686;51.880;5.632;2023-06-04T09:53:55;1.20;;;0.95;;
63536;SDS011;49686;51.880;5.632;2023-06-04T09:56:22;2.13;;;1.02;;
63536;SDS011;49686;51.880;5.632;2023-06-04T09:58:50;1.80;;;1.45;;
63536;SDS011;49686;51.880;5.632;2023-06-04T10:01:21;1.17;;;0.90;;
63536;SDS011;49686;51.880;5.632;2023-06-04T10:03:50;4.25;;;0.95;;
63536;SDS011;49686;51.880;5.632;2023-06-04T10:06:18;1.05;;;0.93;;
63536;SDS011;49686;51.880;5.632;2023-06-04T10:08:46;1.77;;;1.13;;
63536;SDS011;49686;51.880;5.632;2023-06-04T10:11:14;1.90;;;1.00;;
63536;SDS011;49686;51.880;5.632;2023-06-04T10:13:48;1.45;;;1.05;;
63536;SDS011;49686;51.880;5.632;2023-06-04T10:16:19;2.30;;;1.00;;
63536;SDS011;49686;51.880;5.632;2023-06-04T10:18:59;1.65;;;0.90;;
63536;SDS011;49686;51.880;5.632;2023-06-04T10:21:26;2.30;;;1.00;;
63536;SDS011;49686;51.880;5.632;2023-06-04T10:23:55;3.28;;;0.90;;
63536;SDS011;49686;51.880;5.632;2023-06-04T10:26:22;2.25;;;1.10;;
63536;SDS011;49686;51.880;5.632;2023-06-04T10:28:50;1.65;;;0.90;;
63536;SDS011;49686;51.880;5.632;2023-06-04T10:31:19;2.13;;;0.90;;
63536;SDS011;49686;51.880;5.632;2023-06-04T10:33:46;2.78;;;0.90;;
63536;SDS011;49686;51.880;5.632;2023-06-04T10:36:19;1.73;;;0.90;;
63536;SDS011;49686;51.880;5.632;2023-06-04T10:38:47;3.00;;;0.90;;
63536;SDS011;49686;51.880;5.632;2023-06-04T10:41:14;3.35;;;1.20;;
63536;SDS011;49686;51.880;5.632;2023-06-04T10:43:42;2.78;;;0.90;;
63536;SDS011;49686;51.880;5.632;2023-06-04T10:46:12;5.15;;;1.13;;
63536;SDS011;49686;51.880;5.632;2023-06-04T10:48:50;1.13;;;0.90;;
63536;SDS011;49686;51.880;5.632;2023-06-04T10:51:28;1.63;;;0.90;;
63536;SDS011;49686;51.880;5.632;2023-06-04T10:53:55;1.35;;;0.80;;
63536;SDS011;49686;51.880;5.632;2023-06-04T10:56:25;1.00;;;0.90;;
63536;SDS011;49686;51.880;5.632;2023-06-04T10:58:53;1.45;;;1.00;;
63536;SDS011;49686;51.880;5.632;2023-06-04T11:01:23;1.83;;;1.10;;
63536;SDS011;49686;51.880;5.632;2023-06-04T11:03:52;4.28;;;1.00;;
63536;SDS011;49686;51.880;5.632;2023-06-04T11:06:19;0.80;;;0.80;;
63536;SDS011;49686;51.880;5.632;2023-06-04T11:08:46;2.63;;;1.00;;
63536;SDS011;49686;51.880;5.632;2023-06-04T11:11:13;1.00;;;1.00;;
63536;SDS011;49686;51.880;5.632;2023-06-04T11:13:41;1.67;;;1.00;;
63536;SDS011;49686;51.880;5.632;2023-06-04T11:16:15;2.40;;;1.35;;
63536;SDS011;49686;51.880;5.632;2023-06-04T11:18:43;1.38;;;0.77;;
63536;SDS011;49686;51.880;5.632;2023-06-04T11:21:11;2.05;;;0.82;;
63536;SDS011;49686;51.880;5.632;2023-06-04T11:23:38;3.08;;;1.50;;
63536;SDS011;49686;51.880;5.632;2023-06-04T11:26:05;2.50;;;1.20;;
63536;SDS011;49686;51.880;5.632;2023-06-04T11:28:32;2.55;;;1.00;;
63536;SDS011;49686;51.880;5.632;2023-06-04T11:30:59;1.67;;;1.55;;
63536;SDS011;49686;51.880;5.632;2023-06-04T11:33:27;2.00;;;1.00;;
63536;SDS011;49686;51.880;5.632;2023-06-04T11:35:54;1.15;;;0.93;;
63536;SDS011;49686;51.880;5.632;2023-06-04T11:38:25;1.73;;;1.40;;
63536;SDS011;49686;51.880;5.632;2023-06-04T11:40:56;3.22;;;1.08;;
63536;SDS011;49686;51.880;5.632;2023-06-04T11:43:27;1.70;;;1.10;;
63536;SDS011;49686;51.880;5.632;2023-06-04T11:45:54;1.13;;;1.02;;
63536;SDS011;49686;51.880;5.632;2023-06-04T11:48:24;3.10;;;1.25;;
63536;SDS011;49686;51.880;5.632;2023-06-04T11:50:55;1.25;;;1.00;;
63536;SDS011;49686;51.880;5.632;2023-06-04T11:53:22;1.23;;;0.90;;
63536;SDS011;49686;51.880;5.632;2023-06-04T11:55:54;3.25;;;1.17;;
63536;SDS011;49686;51.880;5.632;2023-06-04T11:58:21;2.55;;;1.05;;
63536;SDS011;49686;51.880;5.632;2023-06-04T12:00:51;3.30;;;1.20;;
63536;SDS011;49686;51.880;5.632;2023-06-04T12:03:18;1.38;;;1.08;;
63536;SDS011;49686;51.880;5.632;2023-06-04T12:05:44;2.33;;;1.00;;
63536;SDS011;49686;51.880;5.632;2023-06-04T12:08:11;1.40;;;0.90;;
63536;SDS011;49686;51.880;5.632;2023-06-04T12:10:40;1.30;;;0.90;;
63536;SDS011;49686;51.880;5.632;2023-06-04T12:13:08;2.78;;;1.33;;
63536;SDS011;49686;51.880;5.632;2023-06-04T12:15:35;3.42;;;1.10;;
63536;SDS011;49686;51.880;5.632;2023-06-04T12:18:05;2.67;;;1.20;;
63536;SDS011;49686;51.880;5.632;2023-06-04T12:20:33;3.92;;;1.13;;
63536;SDS011;49686;51.880;5.632;2023-06-04T12:23:01;3.00;;;1.00;;
63536;SDS011;49686;51.880;5.632;2023-06-04T12:25:28;1.85;;;1.00;;
63536;SDS011;49686;51.880;5.632;2023-06-04T12:27:57;1.95;;;1.25;;
63536;SDS011;49686;51.880;5.632;2023-06-04T12:30:34;2.38;;;1.15;;
63536;SDS011;49686;51.880;5.632;2023-06-04T12:33:02;2.80;;;1.13;;
63536;SDS011;49686;51.880;5.632;2023-06-04T12:35:29;2.75;;;1.40;;
63536;SDS011;49686;51.880;5.632;2023-06-04T12:37:55;2.88;;;1.10;;
63536;SDS011;49686;51.880;5.632;2023-06-04T12:40:22;1.48;;;1.00;;
63536;SDS011;49686;51.880;5.632;2023-06-04T12:42:49;5.95;;;1.30;;
63536;SDS011;49686;51.880;5.632;2023-06-04T12:45:17;3.00;;;1.10;;
63536;SDS011;49686;51.880;5.632;2023-06-04T12:47:44;1.10;;;1.00;;
63536;SDS011;49686;51.880;5.632;2023-06-04T12:50:11;3.20;;;2.15;;
63536;SDS011;49686;51.880;5.632;2023-06-04T12:52:38;4.00;;;1.23;;
63536;SDS011;49686;51.880;5.632;2023-06-04T12:55:05;3.85;;;2.15;;
63536;SDS011;49686;51.880;5.632;2023-06-04T12:57:33;1.98;;;1.60;;
63536;SDS011;49686;51.880;5.632;2023-06-04T13:00:00;2.78;;;1.45;;
63536;SDS011;49686;51.880;5.632;2023-06-04T13:02:28;3.47;;;1.45;;
63536;SDS011;49686;51.880;5.632;2023-06-04T13:04:55;2.45;;;1.20;;
63536;SDS011;49686;51.880;5.632;2023-06-04T13:07:22;1.52;;;1.35;;
63536;SDS011;49686;51.880;5.632;2023-06-04T13:09:52;2.92;;;1.65;;
63536;SDS011;49686;51.880;5.632;2023-06-04T13:12:19;2.03;;;1.50;;
63536;SDS011;49686;51.880;5.632;2023-06-04T13:14:46;1.80;;;1.20;;
63536;SDS011;49686;51.880;5.632;2023-06-04T13:17:13;1.52;;;0.82;;
63536;SDS011;49686;51.880;5.632;2023-06-04T13:19:47;2.30;;;1.10;;
63536;SDS011;49686;51.880;5.632;2023-06-04T13:22:14;1.50;;;1.00;;
63536;SDS011;49686;51.880;5.632;2023-06-04T13:24:41;2.78;;;1.20;;
63536;SDS011;49686;51.880;5.632;2023-06-04T13:27:08;2.35;;;1.00;;
63536;SDS011;49686;51.880;5.632;2023-06-04T13:29:34;3.30;;;1.20;;
63536;SDS011;49686;51.880;5.632;2023-06-04T13:32:01;1.58;;;1.00;;
63536;SDS011;49686;51.880;5.632;2023-06-04T13:34:28;3.83;;;1.67;;
63536;SDS011;49686;51.880;5.632;2023-06-04T13:36:56;1.90;;;1.10;;
63536;SDS011;49686;51.880;5.632;2023-06-04T13:39:23;2.78;;;1.48;;
63536;SDS011;49686;51.880;5.632;2023-06-04T13:41:50;2.38;;;1.13;;
63536;SDS011;49686;51.880;5.632;2023-06-04T13:44:17;1.73;;;1.48;;
63536;SDS011;49686;51.880;5.632;2023-06-04T13:46:44;1.67;;;1.17;;
63536;SDS011;49686;51.880;5.632;2023-06-04T13:49:10;1.95;;;1.00;;
63536;SDS011;49686;51.880;5.632;2023-06-04T13:51:37;1.90;;;1.10;;
63536;SDS011;49686;51.880;5.632;2023-06-04T13:54:05;2.55;;;1.20;;
63536;SDS011;49686;51.880;5.632;2023-06-04T13:56:32;2.53;;;1.30;;
63536;SDS011;49686;51.880;5.632;2023-06-04T13:59:00;1.93;;;1.30;;
63536;SDS011;49686;51.880;5.632;2023-06-04T14:01:26;1.80;;;1.30;;
63536;SDS011;49686;51.880;5.632;2023-06-04T14:03:56;2.42;;;1.20;;
63536;SDS011;49686;51.880;5.632;2023-06-04T14:06:22;3.20;;;1.50;;
63536;SDS011;49686;51.880;5.632;2023-06-04T14:08:49;3.28;;;1.30;;
63536;SDS011;49686;51.880;5.632;2023-06-04T14:11:17;1.48;;;1.10;;
63536;SDS011;49686;51.880;5.632;2023-06-04T14:13:48;1.55;;;1.45;;
63536;SDS011;49686;51.880;5.632;2023-06-04T14:16:17;6.40;;;1.30;;
63536;SDS011;49686;51.880;5.632;2023-06-04T14:18:44;5.45;;;1.48;;
63536;SDS011;49686;51.880;5.632;2023-06-04T14:21:11;3.30;;;1.10;;
63536;SDS011;49686;51.880;5.632;2023-06-04T14:23:38;1.83;;;1.05;;
63536;SDS011;49686;51.880;5.632;2023-06-04T14:26:05;2.05;;;1.40;;
63536;SDS011;49686;51.880;5.632;2023-06-04T14:28:33;5.80;;;1.50;;
63536;SDS011;49686;51.880;5.632;2023-06-04T14:31:00;1.38;;;1.27;;
63536;SDS011;49686;51.880;5.632;2023-06-04T14:33:27;1.60;;;1.42;;
63536;SDS011;49686;51.880;5.632;2023-06-04T14:35:54;4.97;;;1.50;;
63536;SDS011;49686;51.880;5.632;2023-06-04T14:38:21;6.90;;;1.48;;
63536;SDS011;49686;51.880;5.632;2023-06-04T14:40:48;1.88;;;1.33;;
63536;SDS011;49686;51.880;5.632;2023-06-04T14:43:15;1.48;;;1.38;;
63536;SDS011;49686;51.880;5.632;2023-06-04T14:45:43;3.33;;;1.50;;
63536;SDS011;49686;51.880;5.632;2023-06-04T14:48:10;3.53;;;1.35;;
63536;SDS011;49686;51.880;5.632;2023-06-04T14:50:41;1.85;;;1.30;;
63536;SDS011;49686;51.880;5.632;2023-06-04T14:53:08;2.10;;;1.20;;
63536;SDS011;49686;51.880;5.632;2023-06-04T14:55:35;2.08;;;1.40;;
63536;SDS011;49686;51.880;5.632;2023-06-04T14:58:02;3.53;;;1.30;;
63536;SDS011;49686;51.880;5.632;2023-06-04T15:00:29;1.88;;;1.40;;